sensor_id;sensor_type;location;lat;lon;timestamp;P1;durP1;ratioP1;P2;durP2;ratioP2
80127;SDS011;69440;52.118;5.408;2024-03-29T00:01:48;5.00;;;0.80;;
80127;SDS011;69440;52.118;5.408;2024-03-29T00:04:14;4.60;;;0.85;;
80127;SDS011;69440;52.118;5.408;2024-03-29T00:06:39;3.80;;;0.90;;
80127;SDS011;69440;52.118;5.408;2024-03-29T00:09:05;4.07;;;0.80;;
80127;SDS011;69440;52.118;5.408;2024-03-29T00:11:30;3.30;;;0.88;;
80127;SDS011;69440;52.118;5.408;2024-03-29T00:13:56;7.93;;;0.88;;
80127;SDS011;69440;52.118;5.408;2024-03-29T00:16:22;4.00;;;0.82;;
80127;SDS011;69440;52.118;5.408;2024-03-29T00:18:51;3.88;;;0.90;;
80127;SDS011;69440;52.118;5.408;2024-03-29T00:21:17;2.85;;;0.75;;
80127;SDS011;69440;52.118;5.408;2024-03-29T00:23:42;8.40;;;1.05;;
80127;SDS011;69440;52.118;5.408;2024-03-29T00:26:10;3.85;;;1.05;;
80127;SDS011;69440;52.118;5.408;2024-03-29T00:28:36;4.30;;;0.82;;
80127;SDS011;69440;52.118;5.408;2024-03-29T00:31:02;4.32;;;0.95;;
80127;SDS011;69440;52.118;5.408;2024-03-29T00:33:27;2.35;;;0.80;;
80127;SDS011;69440;52.118;5.408;2024-03-29T00:35:53;1.85;;;0.77;;
80127;SDS011;69440;52.118;5.408;2024-03-29T00:38:18;5.63;;;0.98;;
80127;SDS011;69440;52.118;5.408;2024-03-29T00:40:44;2.97;;;0.95;;
80127;SDS011;69440;52.118;5.408;2024-03-29T00:43:09;4.45;;;1.10;;
80127;SDS011;69440;52.118;5.408;2024-03-29T00:45:35;3.42;;;0.90;;
80127;SDS011;69440;52.118;5.408;2024-03-29T00:48:00;1.88;;;0.63;;
80127;SDS011;69440;52.118;5.408;2024-03-29T00:50:26;5.13;;;1.00;;
80127;SDS011;69440;52.118;5.408;2024-03-29T00:52:51;2.85;;;0.70;;
80127;SDS011;69440;52.118;5.408;2024-03-29T00:55:17;3.90;;;1.17;;
80127;SDS011;69440;52.118;5.408;2024-03-29T00:57:43;3.25;;;0.82;;
80127;SDS011;69440;52.118;5.408;2024-03-29T01:00:09;1.50;;;0.70;;
80127;SDS011;69440;52.118;5.408;2024-03-29T01:05:01;3.15;;;0.60;;
80127;SDS011;69440;52.118;5.408;2024-03-29T01:07:26;2.83;;;0.65;;
80127;SDS011;69440;52.118;5.408;2024-03-29T01:09:52;2.83;;;0.88;;
80127;SDS011;69440;52.118;5.408;2024-03-29T01:12:17;5.32;;;0.90;;
80127;SDS011;69440;52.118;5.408;2024-03-29T01:14:44;1.67;;;0.80;;
80127;SDS011;69440;52.118;5.408;2024-03-29T01:17:09;4.45;;;0.82;;
80127;SDS011;69440;52.118;5.408;2024-03-29T01:19:35;2.83;;;0.75;;
80127;SDS011;69440;52.118;5.408;2024-03-29T01:22:00;2.47;;;0.85;;
80127;SDS011;69440;52.118;5.408;2024-03-29T01:24:26;3.75;;;0.80;;
80127;SDS011;69440;52.118;5.408;2024-03-29T01:26:51;3.10;;;0.80;;
80127;SDS011;69440;52.118;5.408;2024-03-29T01:29:17;3.63;;;0.80;;
80127;SDS011;69440;52.118;5.408;2024-03-29T01:31:42;3.50;;;0.80;;
80127;SDS011;69440;52.118;5.408;2024-03-29T01:34:08;2.97;;;0.55;;
80127;SDS011;69440;52.118;5.408;2024-03-29T01:36:33;3.03;;;0.65;;
80127;SDS011;69440;52.118;5.408;2024-03-29T01:38:59;2.15;;;0.63;;
80127;SDS011;69440;52.118;5.408;2024-03-29T01:41:25;3.40;;;0.80;;
80127;SDS011;69440;52.118;5.408;2024-03-29T01:43:52;2.45;;;0.52;;
80127;SDS011;69440;52.118;5.408;2024-03-29T01:46:23;6.53;;;0.80;;
80127;SDS011;69440;52.118;5.408;2024-03-29T01:48:49;1.98;;;0.60;;
80127;SDS011;69440;52.118;5.408;2024-03-29T01:51:15;3.85;;;0.60;;
80127;SDS011;69440;52.118;5.408;2024-03-29T01:53:42;3.20;;;1.02;;
80127;SDS011;69440;52.118;5.408;2024-03-29T01:56:08;2.88;;;0.68;;
80127;SDS011;69440;52.118;5.408;2024-03-29T01:58:34;3.85;;;0.80;;
80127;SDS011;69440;52.118;5.408;2024-03-29T02:01:00;2.85;;;0.57;;
80127;SDS011;69440;52.118;5.408;2024-03-29T02:03:26;4.93;;;0.70;;
80127;SDS011;69440;52.118;5.408;2024-03-29T02:05:52;2.85;;;0.60;;
80127;SDS011;69440;52.118;5.408;2024-03-29T02:08:18;1.83;;;0.57;;
80127;SDS011;69440;52.118;5.408;2024-03-29T02:10:45;1.85;;;0.65;;
80127;SDS011;69440;52.118;5.408;2024-03-29T02:13:12;2.75;;;0.57;;
80127;SDS011;69440;52.118;5.408;2024-03-29T02:15:41;2.22;;;0.50;;
80127;SDS011;69440;52.118;5.408;2024-03-29T02:18:07;1.90;;;0.70;;
80127;SDS011;69440;52.118;5.408;2024-03-29T02:23:14;2.20;;;0.52;;
80127;SDS011;69440;52.118;5.408;2024-03-29T02:28:09;2.40;;;0.80;;
80127;SDS011;69440;52.118;5.408;2024-03-29T02:30:34;2.95;;;0.70;;
80127;SDS011;69440;52.118;5.408;2024-03-29T02:33:00;3.75;;;0.77;;
80127;SDS011;69440;52.118;5.408;2024-03-29T02:35:26;4.13;;;0.70;;
80127;SDS011;69440;52.118;5.408;2024-03-29T02:37:52;3.42;;;1.20;;
80127;SDS011;69440;52.118;5.408;2024-03-29T02:40:18;4.80;;;0.80;;
80127;SDS011;69440;52.118;5.408;2024-03-29T02:42:45;2.95;;;0.80;;
80127;SDS011;69440;52.118;5.408;2024-03-29T02:45:12;2.03;;;0.50;;
80127;SDS011;69440;52.118;5.408;2024-03-29T02:47:38;3.78;;;0.68;;
80127;SDS011;69440;52.118;5.408;2024-03-29T02:50:03;2.33;;;0.73;;
80127;SDS011;69440;52.118;5.408;2024-03-29T02:52:31;6.60;;;0.98;;
80127;SDS011;69440;52.118;5.408;2024-03-29T02:54:56;4.25;;;0.95;;
80127;SDS011;69440;52.118;5.408;2024-03-29T02:57:22;1.80;;;0.85;;
80127;SDS011;69440;52.118;5.408;2024-03-29T02:59:47;2.53;;;0.85;;
80127;SDS011;69440;52.118;5.408;2024-03-29T03:02:13;1.42;;;0.55;;
80127;SDS011;69440;52.118;5.408;2024-03-29T03:04:38;2.55;;;0.80;;
80127;SDS011;69440;52.118;5.408;2024-03-29T03:07:04;4.07;;;0.60;;
80127;SDS011;69440;52.118;5.408;2024-03-29T03:09:48;3.92;;;0.90;;
80127;SDS011;69440;52.118;5.408;2024-03-29T03:12:32;4.47;;;0.77;;
80127;SDS011;69440;52.118;5.408;2024-03-29T03:14:58;2.85;;;0.73;;
80127;SDS011;69440;52.118;5.408;2024-03-29T03:17:24;3.78;;;0.60;;
80127;SDS011;69440;52.118;5.408;2024-03-29T03:19:51;2.30;;;0.52;;
80127;SDS011;69440;52.118;5.408;2024-03-29T03:22:17;4.00;;;0.80;;
80127;SDS011;69440;52.118;5.408;2024-03-29T03:24:42;2.33;;;0.60;;
80127;SDS011;69440;52.118;5.408;2024-03-29T03:27:08;2.33;;;0.50;;
80127;SDS011;69440;52.118;5.408;2024-03-29T03:29:34;2.20;;;0.52;;
80127;SDS011;69440;52.118;5.408;2024-03-29T03:31:59;2.20;;;0.50;;
80127;SDS011;69440;52.118;5.408;2024-03-29T03:34:25;2.95;;;0.55;;
80127;SDS011;69440;52.118;5.408;2024-03-29T03:36:50;2.22;;;0.60;;
80127;SDS011;69440;52.118;5.408;2024-03-29T03:39:16;3.40;;;0.70;;
80127;SDS011;69440;52.118;5.408;2024-03-29T03:41:41;3.45;;;0.88;;
80127;SDS011;69440;52.118;5.408;2024-03-29T03:44:07;3.25;;;0.63;;
80127;SDS011;69440;52.118;5.408;2024-03-29T03:46:32;1.42;;;0.40;;
80127;SDS011;69440;52.118;5.408;2024-03-29T03:48:57;3.28;;;0.90;;
80127;SDS011;69440;52.118;5.408;2024-03-29T03:51:23;2.17;;;0.63;;
80127;SDS011;69440;52.118;5.408;2024-03-29T03:53:48;2.33;;;0.85;;
80127;SDS011;69440;52.118;5.408;2024-03-29T03:56:14;2.92;;;0.73;;
80127;SDS011;69440;52.118;5.408;2024-03-29T03:58:41;1.38;;;0.50;;
80127;SDS011;69440;52.118;5.408;2024-03-29T04:01:06;1.95;;;0.40;;
80127;SDS011;69440;52.118;5.408;2024-03-29T04:03:32;3.65;;;0.90;;
80127;SDS011;69440;52.118;5.408;2024-03-29T04:05:57;2.88;;;0.90;;
80127;SDS011;69440;52.118;5.408;2024-03-29T04:08:23;5.28;;;0.80;;
80127;SDS011;69440;52.118;5.408;2024-03-29T04:10:48;3.22;;;0.70;;
80127;SDS011;69440;52.118;5.408;2024-03-29T04:13:14;3.13;;;1.88;;
80127;SDS011;69440;52.118;5.408;2024-03-29T04:15:39;3.55;;;0.70;;
80127;SDS011;69440;52.118;5.408;2024-03-29T04:18:05;3.25;;;0.80;;
80127;SDS011;69440;52.118;5.408;2024-03-29T04:22:57;6.00;;;0.63;;
80127;SDS011;69440;52.118;5.408;2024-03-29T04:25:23;1.73;;;0.45;;
80127;SDS011;69440;52.118;5.408;2024-03-29T04:27:48;2.33;;;0.68;;
80127;SDS011;69440;52.118;5.408;2024-03-29T04:30:14;1.30;;;0.40;;
80127;SDS011;69440;52.118;5.408;2024-03-29T04:32:39;1.60;;;0.40;;
80127;SDS011;69440;52.118;5.408;2024-03-29T04:35:05;1.02;;;0.50;;
80127;SDS011;69440;52.118;5.408;2024-03-29T04:37:31;3.55;;;0.60;;
80127;SDS011;69440;52.118;5.408;2024-03-29T04:39:56;1.63;;;0.50;;
80127;SDS011;69440;52.118;5.408;2024-03-29T04:42:22;2.97;;;0.65;;
80127;SDS011;69440;52.118;5.408;2024-03-29T04:44:47;1.02;;;0.30;;
80127;SDS011;69440;52.118;5.408;2024-03-29T04:47:13;3.45;;;0.45;;
80127;SDS011;69440;52.118;5.408;2024-03-29T04:49:38;3.20;;;0.50;;
80127;SDS011;69440;52.118;5.408;2024-03-29T04:52:07;3.28;;;0.60;;
80127;SDS011;69440;52.118;5.408;2024-03-29T04:54:33;2.72;;;0.55;;
80127;SDS011;69440;52.118;5.408;2024-03-29T04:56:59;1.65;;;0.40;;
80127;SDS011;69440;52.118;5.408;2024-03-29T04:59:31;1.85;;;0.40;;
80127;SDS011;69440;52.118;5.408;2024-03-29T05:01:58;0.82;;;0.40;;
80127;SDS011;69440;52.118;5.408;2024-03-29T05:04:24;1.80;;;0.45;;
80127;SDS011;69440;52.118;5.408;2024-03-29T05:06:53;1.25;;;0.45;;
80127;SDS011;69440;52.118;5.408;2024-03-29T05:09:18;2.05;;;0.38;;
80127;SDS011;69440;52.118;5.408;2024-03-29T05:11:44;1.35;;;0.30;;
80127;SDS011;69440;52.118;5.408;2024-03-29T05:14:11;1.73;;;0.30;;
80127;SDS011;69440;52.118;5.408;2024-03-29T05:16:39;1.48;;;0.40;;
80127;SDS011;69440;52.118;5.408;2024-03-29T05:19:05;0.93;;;0.40;;
80127;SDS011;69440;52.118;5.408;2024-03-29T05:21:31;1.88;;;0.50;;
80127;SDS011;69440;52.118;5.408;2024-03-29T05:23:56;1.15;;;0.50;;
80127;SDS011;69440;52.118;5.408;2024-03-29T05:26:22;0.50;;;0.50;;
80127;SDS011;69440;52.118;5.408;2024-03-29T05:28:47;1.58;;;0.47;;
80127;SDS011;69440;52.118;5.408;2024-03-29T05:31:14;1.92;;;0.43;;
80127;SDS011;69440;52.118;5.408;2024-03-29T05:33:40;1.90;;;0.52;;
80127;SDS011;69440;52.118;5.408;2024-03-29T05:36:06;2.20;;;0.40;;
80127;SDS011;69440;52.118;5.408;2024-03-29T05:38:33;8.90;;;1.02;;
80127;SDS011;69440;52.118;5.408;2024-03-29T05:40:59;1.77;;;0.43;;
80127;SDS011;69440;52.118;5.408;2024-03-29T05:43:24;2.40;;;0.40;;
80127;SDS011;69440;52.118;5.408;2024-03-29T05:45:52;0.55;;;0.40;;
80127;SDS011;69440;52.118;5.408;2024-03-29T05:48:18;1.52;;;0.60;;
80127;SDS011;69440;52.118;5.408;2024-03-29T05:53:10;0.93;;;0.50;;
80127;SDS011;69440;52.118;5.408;2024-03-29T05:55:36;2.00;;;0.55;;
80127;SDS011;69440;52.118;5.408;2024-03-29T05:58:01;2.22;;;0.40;;
80127;SDS011;69440;52.118;5.408;2024-03-29T06:02:54;0.77;;;0.40;;
80127;SDS011;69440;52.118;5.408;2024-03-29T06:05:19;1.02;;;0.50;;
80127;SDS011;69440;52.118;5.408;2024-03-29T06:07:45;2.80;;;0.52;;
80127;SDS011;69440;52.118;5.408;2024-03-29T06:10:11;2.70;;;0.82;;
80127;SDS011;69440;52.118;5.408;2024-03-29T06:12:36;3.40;;;0.70;;
80127;SDS011;69440;52.118;5.408;2024-03-29T06:15:04;2.38;;;0.70;;
80127;SDS011;69440;52.118;5.408;2024-03-29T06:17:49;3.58;;;0.85;;
80127;SDS011;69440;52.118;5.408;2024-03-29T06:20:15;2.28;;;0.60;;
80127;SDS011;69440;52.118;5.408;2024-03-29T06:22:41;1.70;;;0.50;;
80127;SDS011;69440;52.118;5.408;2024-03-29T06:25:06;1.60;;;0.50;;
80127;SDS011;69440;52.118;5.408;2024-03-29T06:27:34;3.58;;;0.60;;
80127;SDS011;69440;52.118;5.408;2024-03-29T06:30:01;1.17;;;0.60;;
80127;SDS011;69440;52.118;5.408;2024-03-29T06:32:29;3.10;;;0.52;;
80127;SDS011;69440;52.118;5.408;2024-03-29T06:34:55;1.25;;;0.40;;
80127;SDS011;69440;52.118;5.408;2024-03-29T06:37:21;1.98;;;0.57;;
80127;SDS011;69440;52.118;5.408;2024-03-29T06:42:13;3.30;;;0.70;;
80127;SDS011;69440;52.118;5.408;2024-03-29T06:44:39;1.85;;;0.63;;
80127;SDS011;69440;52.118;5.408;2024-03-29T06:47:04;2.10;;;0.70;;
80127;SDS011;69440;52.118;5.408;2024-03-29T06:49:30;4.18;;;0.63;;
80127;SDS011;69440;52.118;5.408;2024-03-29T06:51:57;1.70;;;0.75;;
80127;SDS011;69440;52.118;5.408;2024-03-29T06:54:25;2.53;;;0.60;;
80127;SDS011;69440;52.118;5.408;2024-03-29T06:56:55;3.42;;;0.90;;
80127;SDS011;69440;52.118;5.408;2024-03-29T06:59:21;2.05;;;0.73;;
80127;SDS011;69440;52.118;5.408;2024-03-29T07:01:47;1.75;;;0.40;;
80127;SDS011;69440;52.118;5.408;2024-03-29T07:06:45;2.20;;;0.52;;
80127;SDS011;69440;52.118;5.408;2024-03-29T07:09:16;0.88;;;0.40;;
80127;SDS011;69440;52.118;5.408;2024-03-29T07:11:41;2.50;;;0.50;;
80127;SDS011;69440;52.118;5.408;2024-03-29T07:14:07;2.05;;;0.60;;
80127;SDS011;69440;52.118;5.408;2024-03-29T07:19:02;2.22;;;0.68;;
80127;SDS011;69440;52.118;5.408;2024-03-29T07:23:53;4.07;;;0.60;;
80127;SDS011;69440;52.118;5.408;2024-03-29T07:26:19;0.93;;;0.50;;
80127;SDS011;69440;52.118;5.408;2024-03-29T07:28:44;1.92;;;0.50;;
80127;SDS011;69440;52.118;5.408;2024-03-29T07:31:10;1.45;;;0.50;;
80127;SDS011;69440;52.118;5.408;2024-03-29T07:33:39;1.95;;;0.57;;
80127;SDS011;69440;52.118;5.408;2024-03-29T07:36:05;2.40;;;0.80;;
80127;SDS011;69440;52.118;5.408;2024-03-29T07:38:31;3.72;;;0.65;;
80127;SDS011;69440;52.118;5.408;2024-03-29T07:40:59;0.90;;;0.50;;
80127;SDS011;69440;52.118;5.408;2024-03-29T07:43:34;0.50;;;0.30;;
80127;SDS011;69440;52.118;5.408;2024-03-29T07:46:02;0.77;;;0.40;;
80127;SDS011;69440;52.118;5.408;2024-03-29T07:48:28;2.42;;;0.50;;
80127;SDS011;69440;52.118;5.408;2024-03-29T07:50:53;0.80;;;0.40;;
80127;SDS011;69440;52.118;5.408;2024-03-29T07:53:19;2.08;;;0.65;;
80127;SDS011;69440;52.118;5.408;2024-03-29T07:55:44;2.00;;;0.60;;
80127;SDS011;69440;52.118;5.408;2024-03-29T07:58:10;2.63;;;0.60;;
80127;SDS011;69440;52.118;5.408;2024-03-29T08:00:39;1.85;;;0.50;;
80127;SDS011;69440;52.118;5.408;2024-03-29T08:03:06;2.83;;;0.90;;
80127;SDS011;69440;52.118;5.408;2024-03-29T08:05:32;1.25;;;0.32;;
80127;SDS011;69440;52.118;5.408;2024-03-29T08:07:59;1.08;;;0.30;;
80127;SDS011;69440;52.118;5.408;2024-03-29T08:10:24;2.50;;;0.70;;
80127;SDS011;69440;52.118;5.408;2024-03-29T08:12:50;1.20;;;0.50;;
80127;SDS011;69440;52.118;5.408;2024-03-29T08:15:15;1.33;;;0.43;;
80127;SDS011;69440;52.118;5.408;2024-03-29T08:17:43;0.80;;;0.40;;
80127;SDS011;69440;52.118;5.408;2024-03-29T08:20:10;0.93;;;0.50;;
80127;SDS011;69440;52.118;5.408;2024-03-29T08:22:36;0.93;;;0.43;;
80127;SDS011;69440;52.118;5.408;2024-03-29T08:25:01;1.98;;;0.50;;
80127;SDS011;69440;52.118;5.408;2024-03-29T08:27:27;0.95;;;0.40;;
80127;SDS011;69440;52.118;5.408;2024-03-29T08:29:53;1.02;;;0.35;;
80127;SDS011;69440;52.118;5.408;2024-03-29T08:34:44;0.73;;;0.40;;
80127;SDS011;69440;52.118;5.408;2024-03-29T08:37:10;3.35;;;0.60;;
80127;SDS011;69440;52.118;5.408;2024-03-29T08:39:35;1.65;;;0.50;;
80127;SDS011;69440;52.118;5.408;2024-03-29T08:42:03;1.38;;;0.50;;
80127;SDS011;69440;52.118;5.408;2024-03-29T08:44:32;1.70;;;0.43;;
80127;SDS011;69440;52.118;5.408;2024-03-29T08:46:58;3.35;;;0.60;;
80127;SDS011;69440;52.118;5.408;2024-03-29T08:49:26;1.75;;;0.50;;
80127;SDS011;69440;52.118;5.408;2024-03-29T08:51:52;2.15;;;0.40;;
80127;SDS011;69440;52.118;5.408;2024-03-29T08:54:18;4.57;;;0.50;;
80127;SDS011;69440;52.118;5.408;2024-03-29T08:56:43;2.63;;;0.60;;
80127;SDS011;69440;52.118;5.408;2024-03-29T09:01:40;1.67;;;0.60;;
80127;SDS011;69440;52.118;5.408;2024-03-29T09:04:08;1.13;;;0.50;;
80127;SDS011;69440;52.118;5.408;2024-03-29T09:06:39;2.30;;;0.50;;
80127;SDS011;69440;52.118;5.408;2024-03-29T09:09:08;2.40;;;0.63;;
80127;SDS011;69440;52.118;5.408;2024-03-29T09:11:34;1.15;;;0.60;;
80127;SDS011;69440;52.118;5.408;2024-03-29T09:13:59;2.50;;;0.60;;
80127;SDS011;69440;52.118;5.408;2024-03-29T09:16:26;1.85;;;0.65;;
80127;SDS011;69440;52.118;5.408;2024-03-29T09:18:54;1.70;;;0.60;;
80127;SDS011;69440;52.118;5.408;2024-03-29T09:21:20;3.13;;;0.85;;
80127;SDS011;69440;52.118;5.408;2024-03-29T09:23:45;2.78;;;0.88;;
80127;SDS011;69440;52.118;5.408;2024-03-29T09:26:11;1.58;;;0.50;;
80127;SDS011;69440;52.118;5.408;2024-03-29T09:28:39;5.97;;;0.88;;
80127;SDS011;69440;52.118;5.408;2024-03-29T09:31:05;1.60;;;0.70;;
80127;SDS011;69440;52.118;5.408;2024-03-29T09:35:56;1.15;;;0.50;;
80127;SDS011;69440;52.118;5.408;2024-03-29T09:38:24;1.90;;;0.70;;
80127;SDS011;69440;52.118;5.408;2024-03-29T09:43:41;1.00;;;0.50;;
80127;SDS011;69440;52.118;5.408;2024-03-29T09:46:10;1.85;;;0.50;;
80127;SDS011;69440;52.118;5.408;2024-03-29T09:48:37;1.52;;;0.47;;
80127;SDS011;69440;52.118;5.408;2024-03-29T09:51:03;3.00;;;0.50;;
80127;SDS011;69440;52.118;5.408;2024-03-29T09:53:31;2.08;;;0.77;;
80127;SDS011;69440;52.118;5.408;2024-03-29T09:56:04;2.22;;;0.50;;
80127;SDS011;69440;52.118;5.408;2024-03-29T09:58:34;2.72;;;0.70;;
80127;SDS011;69440;52.118;5.408;2024-03-29T10:01:05;1.80;;;0.70;;
80127;SDS011;69440;52.118;5.408;2024-03-29T10:03:36;3.55;;;0.70;;
80127;SDS011;69440;52.118;5.408;2024-03-29T10:06:05;1.83;;;0.82;;
80127;SDS011;69440;52.118;5.408;2024-03-29T10:08:34;1.55;;;0.70;;
80127;SDS011;69440;52.118;5.408;2024-03-29T10:13:25;1.88;;;0.70;;
80127;SDS011;69440;52.118;5.408;2024-03-29T10:15:51;4.80;;;0.60;;
80127;SDS011;69440;52.118;5.408;2024-03-29T10:18:20;1.60;;;0.65;;
80127;SDS011;69440;52.118;5.408;2024-03-29T10:21:03;2.10;;;0.70;;
80127;SDS011;69440;52.118;5.408;2024-03-29T10:23:30;2.33;;;0.70;;
80127;SDS011;69440;52.118;5.408;2024-03-29T10:25:57;1.83;;;0.80;;
80127;SDS011;69440;52.118;5.408;2024-03-29T10:28:23;2.63;;;0.77;;
80127;SDS011;69440;52.118;5.408;2024-03-29T10:30:49;1.70;;;0.80;;
80127;SDS011;69440;52.118;5.408;2024-03-29T10:35:43;2.42;;;0.80;;
80127;SDS011;69440;52.118;5.408;2024-03-29T10:38:10;1.40;;;0.73;;
80127;SDS011;69440;52.118;5.408;2024-03-29T10:40:38;1.65;;;0.80;;
80127;SDS011;69440;52.118;5.408;2024-03-29T10:43:09;2.92;;;0.80;;
80127;SDS011;69440;52.118;5.408;2024-03-29T10:45:41;2.67;;;0.73;;
80127;SDS011;69440;52.118;5.408;2024-03-29T10:48:08;1.30;;;0.68;;
80127;SDS011;69440;52.118;5.408;2024-03-29T10:50:35;2.47;;;0.73;;
80127;SDS011;69440;52.118;5.408;2024-03-29T10:53:01;2.47;;;0.90;;
80127;SDS011;69440;52.118;5.408;2024-03-29T10:55:28;2.45;;;0.70;;
80127;SDS011;69440;52.118;5.408;2024-03-29T10:57:55;0.98;;;0.60;;
80127;SDS011;69440;52.118;5.408;2024-03-29T11:00:23;1.70;;;0.80;;
80127;SDS011;69440;52.118;5.408;2024-03-29T11:02:57;2.15;;;0.90;;
80127;SDS011;69440;52.118;5.408;2024-03-29T11:05:38;1.63;;;0.73;;
80127;SDS011;69440;52.118;5.408;2024-03-29T11:10:49;2.53;;;0.98;;
80127;SDS011;69440;52.118;5.408;2024-03-29T11:15:48;1.58;;;0.90;;
80127;SDS011;69440;52.118;5.408;2024-03-29T11:18:15;1.63;;;1.02;;
80127;SDS011;69440;52.118;5.408;2024-03-29T11:20:44;2.20;;;0.93;;
80127;SDS011;69440;52.118;5.408;2024-03-29T11:25:45;1.15;;;0.80;;
80127;SDS011;69440;52.118;5.408;2024-03-29T11:28:14;1.67;;;0.80;;
80127;SDS011;69440;52.118;5.408;2024-03-29T11:30:46;2.00;;;0.70;;
80127;SDS011;69440;52.118;5.408;2024-03-29T11:33:29;2.63;;;1.13;;
80127;SDS011;69440;52.118;5.408;2024-03-29T11:35:55;1.48;;;0.80;;
80127;SDS011;69440;52.118;5.408;2024-03-29T11:38:22;1.08;;;0.70;;
80127;SDS011;69440;52.118;5.408;2024-03-29T11:41:02;1.38;;;0.70;;
80127;SDS011;69440;52.118;5.408;2024-03-29T11:43:31;1.95;;;0.70;;
80127;SDS011;69440;52.118;5.408;2024-03-29T11:45:59;1.63;;;0.77;;
80127;SDS011;69440;52.118;5.408;2024-03-29T11:48:29;1.83;;;0.57;;
80127;SDS011;69440;52.118;5.408;2024-03-29T11:50:58;1.70;;;0.60;;
80127;SDS011;69440;52.118;5.408;2024-03-29T11:53:25;1.58;;;0.60;;
80127;SDS011;69440;52.118;5.408;2024-03-29T11:55:53;1.63;;;0.68;;
80127;SDS011;69440;52.118;5.408;2024-03-29T11:58:20;0.80;;;0.47;;
80127;SDS011;69440;52.118;5.408;2024-03-29T12:00:49;1.60;;;0.80;;
80127;SDS011;69440;52.118;5.408;2024-03-29T12:03:16;2.00;;;0.80;;
80127;SDS011;69440;52.118;5.408;2024-03-29T12:05:46;1.90;;;0.70;;
80127;SDS011;69440;52.118;5.408;2024-03-29T12:08:13;1.67;;;0.80;;
80127;SDS011;69440;52.118;5.408;2024-03-29T12:10:39;1.20;;;0.70;;
80127;SDS011;69440;52.118;5.408;2024-03-29T12:13:06;2.47;;;0.82;;
80127;SDS011;69440;52.118;5.408;2024-03-29T12:15:32;1.08;;;0.80;;
80127;SDS011;69440;52.118;5.408;2024-03-29T12:17:59;1.92;;;0.73;;
80127;SDS011;69440;52.118;5.408;2024-03-29T12:20:26;1.85;;;0.70;;
80127;SDS011;69440;52.118;5.408;2024-03-29T12:22:53;1.50;;;0.80;;
80127;SDS011;69440;52.118;5.408;2024-03-29T12:25:20;2.28;;;0.90;;
80127;SDS011;69440;52.118;5.408;2024-03-29T12:27:46;2.00;;;1.08;;
80127;SDS011;69440;52.118;5.408;2024-03-29T12:30:12;1.83;;;0.85;;
80127;SDS011;69440;52.118;5.408;2024-03-29T12:32:39;1.52;;;0.90;;
80127;SDS011;69440;52.118;5.408;2024-03-29T12:35:12;2.70;;;0.90;;
80127;SDS011;69440;52.118;5.408;2024-03-29T12:37:49;1.40;;;0.88;;
80127;SDS011;69440;52.118;5.408;2024-03-29T12:40:17;1.70;;;1.00;;
80127;SDS011;69440;52.118;5.408;2024-03-29T12:42:49;2.42;;;1.10;;
80127;SDS011;69440;52.118;5.408;2024-03-29T12:45:16;3.03;;;1.20;;
80127;SDS011;69440;52.118;5.408;2024-03-29T12:47:42;1.40;;;0.90;;
80127;SDS011;69440;52.118;5.408;2024-03-29T12:50:09;2.15;;;1.15;;
80127;SDS011;69440;52.118;5.408;2024-03-29T12:52:41;2.97;;;1.10;;
80127;SDS011;69440;52.118;5.408;2024-03-29T12:55:07;1.80;;;1.10;;
80127;SDS011;69440;52.118;5.408;2024-03-29T12:57:34;1.92;;;1.20;;
80127;SDS011;69440;52.118;5.408;2024-03-29T13:00:03;2.45;;;1.30;;
80127;SDS011;69440;52.118;5.408;2024-03-29T13:02:34;1.60;;;1.15;;
80127;SDS011;69440;52.118;5.408;2024-03-29T13:05:01;2.33;;;1.20;;
80127;SDS011;69440;52.118;5.408;2024-03-29T13:07:28;2.50;;;1.33;;
80127;SDS011;69440;52.118;5.408;2024-03-29T13:09:53;2.00;;;1.20;;
80127;SDS011;69440;52.118;5.408;2024-03-29T13:12:19;2.40;;;1.30;;
80127;SDS011;69440;52.118;5.408;2024-03-29T13:14:45;2.58;;;1.17;;
80127;SDS011;69440;52.118;5.408;2024-03-29T13:17:10;2.50;;;1.20;;
80127;SDS011;69440;52.118;5.408;2024-03-29T13:19:36;2.38;;;1.15;;
80127;SDS011;69440;52.118;5.408;2024-03-29T13:22:01;3.22;;;1.45;;
80127;SDS011;69440;52.118;5.408;2024-03-29T13:24:27;3.00;;;1.10;;
80127;SDS011;69440;52.118;5.408;2024-03-29T13:26:54;2.88;;;1.25;;
80127;SDS011;69440;52.118;5.408;2024-03-29T13:29:20;1.60;;;1.08;;
80127;SDS011;69440;52.118;5.408;2024-03-29T13:31:46;3.25;;;1.20;;
80127;SDS011;69440;52.118;5.408;2024-03-29T13:34:11;1.70;;;1.02;;
80127;SDS011;69440;52.118;5.408;2024-03-29T13:36:38;3.90;;;1.20;;
80127;SDS011;69440;52.118;5.408;2024-03-29T13:39:04;3.00;;;1.20;;
80127;SDS011;69440;52.118;5.408;2024-03-29T13:41:34;3.28;;;1.35;;
80127;SDS011;69440;52.118;5.408;2024-03-29T13:44:02;2.00;;;1.00;;
80127;SDS011;69440;52.118;5.408;2024-03-29T13:46:34;1.77;;;1.00;;
80127;SDS011;69440;52.118;5.408;2024-03-29T13:49:01;2.20;;;1.10;;
80127;SDS011;69440;52.118;5.408;2024-03-29T13:51:28;1.27;;;0.85;;
80127;SDS011;69440;52.118;5.408;2024-03-29T13:53:54;2.30;;;0.98;;
80127;SDS011;69440;52.118;5.408;2024-03-29T13:56:20;1.73;;;0.98;;
80127;SDS011;69440;52.118;5.408;2024-03-29T13:58:46;1.30;;;0.80;;
80127;SDS011;69440;52.118;5.408;2024-03-29T14:01:12;1.60;;;0.93;;
80127;SDS011;69440;52.118;5.408;2024-03-29T14:03:38;1.60;;;0.77;;
80127;SDS011;69440;52.118;5.408;2024-03-29T14:06:03;1.60;;;0.82;;
80127;SDS011;69440;52.118;5.408;2024-03-29T14:08:30;2.25;;;0.90;;
80127;SDS011;69440;52.118;5.408;2024-03-29T14:10:57;1.15;;;0.65;;
80127;SDS011;69440;52.118;5.408;2024-03-29T14:13:23;0.90;;;0.60;;
80127;SDS011;69440;52.118;5.408;2024-03-29T14:15:49;1.98;;;0.88;;
80127;SDS011;69440;52.118;5.408;2024-03-29T14:18:15;0.98;;;0.60;;
80127;SDS011;69440;52.118;5.408;2024-03-29T14:20:40;2.55;;;0.70;;
80127;SDS011;69440;52.118;5.408;2024-03-29T14:23:06;1.00;;;0.60;;
80127;SDS011;69440;52.118;5.408;2024-03-29T14:25:33;1.20;;;0.60;;
80127;SDS011;69440;52.118;5.408;2024-03-29T14:27:59;1.33;;;0.70;;
80127;SDS011;69440;52.118;5.408;2024-03-29T14:30:27;1.50;;;0.90;;
80127;SDS011;69440;52.118;5.408;2024-03-29T14:32:55;1.60;;;0.65;;
80127;SDS011;69440;52.118;5.408;2024-03-29T14:35:21;1.48;;;0.60;;
80127;SDS011;69440;52.118;5.408;2024-03-29T14:37:47;1.33;;;0.50;;
80127;SDS011;69440;52.118;5.408;2024-03-29T14:40:12;3.28;;;0.73;;
80127;SDS011;69440;52.118;5.408;2024-03-29T14:42:40;2.38;;;0.70;;
80127;SDS011;69440;52.118;5.408;2024-03-29T14:45:06;0.70;;;0.40;;
80127;SDS011;69440;52.118;5.408;2024-03-29T14:47:32;1.00;;;0.50;;
80127;SDS011;69440;52.118;5.408;2024-03-29T14:49:59;1.17;;;0.50;;
80127;SDS011;69440;52.118;5.408;2024-03-29T14:52:25;0.90;;;0.57;;
80127;SDS011;69440;52.118;5.408;2024-03-29T14:54:51;1.15;;;0.50;;
80127;SDS011;69440;52.118;5.408;2024-03-29T14:57:16;1.00;;;0.70;;
80127;SDS011;69440;52.118;5.408;2024-03-29T14:59:47;0.93;;;0.50;;
80127;SDS011;69440;52.118;5.408;2024-03-29T15:02:13;2.08;;;0.60;;
80127;SDS011;69440;52.118;5.408;2024-03-29T15:04:39;0.98;;;0.50;;
80127;SDS011;69440;52.118;5.408;2024-03-29T15:07:04;0.60;;;0.50;;
80127;SDS011;69440;52.118;5.408;2024-03-29T15:09:30;1.38;;;0.50;;
80127;SDS011;69440;52.118;5.408;2024-03-29T15:11:55;1.45;;;0.40;;
80127;SDS011;69440;52.118;5.408;2024-03-29T15:14:21;1.35;;;0.50;;
80127;SDS011;69440;52.118;5.408;2024-03-29T15:16:46;0.63;;;0.47;;
80127;SDS011;69440;52.118;5.408;2024-03-29T15:19:14;0.82;;;0.50;;
80127;SDS011;69440;52.118;5.408;2024-03-29T15:21:40;1.15;;;0.52;;
80127;SDS011;69440;52.118;5.408;2024-03-29T15:24:07;1.23;;;0.55;;
80127;SDS011;69440;52.118;5.408;2024-03-29T15:26:33;1.80;;;0.90;;
80127;SDS011;69440;52.118;5.408;2024-03-29T15:28:59;1.33;;;0.70;;
80127;SDS011;69440;52.118;5.408;2024-03-29T15:31:36;1.52;;;0.80;;
80127;SDS011;69440;52.118;5.408;2024-03-29T15:34:02;1.42;;;0.63;;